Time;durP1;ratioP1;P1;durP2;ratioP2;P2;SDS_P1;SDS_P2;PMS_P1;PMS_P2;Temp;Humidity;BMP_temperature;BMP_pressure;BME280_temperature;BME280_humidity;BME280_pressure;Samples;Min_cycle;Max_cycle;Signal;HPM_P1;HPM_P2
2022/03/24 00:01:27;;;;;;;;;;;5.60;99.90;;;;;;5036550;28;19959;-73
2022/03/24 00:03:53;;;;;;;;;;;5.60;99.90;;;;;;5036678;28;20304;-73
2022/03/24 00:06:18;;;;;;;;;;;5.40;99.90;;;;;;5018626;28;19905;-74
2022/03/24 00:08:44;;;;;;;;;;;5.30;99.90;;;;;;5019006;28;19911;-73
2022/03/24 00:11:10;;;;;;;;;;;5.20;99.90;;;;;;5036272;28;19920;-73
2022/03/24 00:13:36;;;;;;;;;;;5.10;99.90;;;;;;5036221;28;20003;-74
2022/03/24 00:16:02;;;;;;;;;;;5.10;99.90;;;;;;5018835;28;19915;-74
2022/03/24 00:18:31;;;;;;;;;;;5.10;99.90;;;;;;5035149;28;20263;-72
2022/03/24 00:20:57;;;;;;;;;;;5.00;99.90;;;;;;5018662;28;20295;-73
2022/03/24 00:23:23;;;;;;;;;;;5.00;99.90;;;;;;5036488;28;20269;-73
2022/03/24 00:25:49;;;;;;;;;;;5.00;99.90;;;;;;5036335;28;19937;-73
2022/03/24 00:28:14;;;;;;;;;;;5.20;99.90;;;;;;5018599;28;19905;-73
2022/03/24 00:30:40;;;;;;;;;;;5.30;99.90;;;;;;5036249;28;20258;-73
2022/03/24 00:33:06;;;;;;;;;;;5.20;99.90;;;;;;5036138;28;20303;-73
2022/03/24 00:35:32;;;;;;;;;;;5.10;99.90;;;;;;5036026;28;19905;-73
2022/03/24 00:37:58;;;;;;;;;;;5.00;99.90;;;;;;5036179;28;19954;-72
2022/03/24 00:40:23;;;;;;;;;;;4.90;99.90;;;;;;5018584;28;19905;-72
2022/03/24 00:42:49;;;;;;;;;;;4.70;99.90;;;;;;5018456;28;20383;-73
2022/03/24 00:45:14;;;;;;;;;;;4.60;99.90;;;;;;5018359;28;19912;-74
2022/03/24 00:47:41;;;;;;;;;;;4.60;99.90;;;;;;5035878;28;19959;-74
2022/03/24 00:50:07;;;;;;;;;;;4.70;99.90;;;;;;5035976;28;20012;-73
2022/03/24 00:52:34;;;;;;;;;;;4.80;99.90;;;;;;5035582;28;19923;-73
2022/03/24 00:55:00;;;;;;;;;;;4.80;99.90;;;;;;5036224;28;19995;-79
2022/03/24 00:57:26;;;;;;;;;;;4.60;99.90;;;;;;5036012;28;19975;-73
2022/03/24 00:59:51;;;;;;;;;;;4.60;99.90;;;;;;5036107;28;19912;-73
2022/03/24 01:02:17;;;;;;;;;;;4.40;99.90;;;;;;5035755;28;19909;-73
2022/03/24 01:04:42;;;;;;;;;;;4.20;99.90;;;;;;5018213;28;20012;-80
2022/03/24 01:07:08;;;;;;;;;;;4.20;99.90;;;;;;5035590;28;20255;-73
2022/03/24 01:09:34;;;;;;;;;;;4.40;99.90;;;;;;5036049;28;19963;-73
2022/03/24 01:12:02;;;;;;;;;;;4.50;99.90;;;;;;5035849;28;19905;-73
2022/03/24 01:14:27;;;;;;;;;;;4.50;99.90;;;;;;5017949;28;20368;-73
2022/03/24 01:16:53;;;;;;;;;;;4.30;99.90;;;;;;5019126;28;19911;-73
2022/03/24 01:19:19;;;;;;;;;;;4.20;99.90;;;;;;5039645;28;19905;-74
2022/03/24 01:21:44;;;;;;;;;;;4.00;99.90;;;;;;5039793;28;19955;-74
2022/03/24 01:24:10;;;;;;;;;;;4.00;99.90;;;;;;5021918;28;19952;-73
2022/03/24 01:26:36;;;;;;;;;;;4.00;99.90;;;;;;5021936;28;19952;-73
2022/03/24 01:29:02;;;;;;;;;;;3.90;99.90;;;;;;5039637;28;19911;-73
2022/03/24 01:31:28;;;;;;;;;;;4.00;99.90;;;;;;5039369;28;19945;-73
2022/03/24 01:33:54;;;;;;;;;;;4.00;99.90;;;;;;5039623;28;19913;-73
2022/03/24 01:36:20;;;;;;;;;;;4.00;99.90;;;;;;5021755;28;19937;-73
2022/03/24 01:38:46;;;;;;;;;;;3.90;99.90;;;;;;5039739;28;19952;-79
2022/03/24 01:41:11;;;;;;;;;;;3.90;99.90;;;;;;5021867;28;19913;-73
2022/03/24 01:43:37;;;;;;;;;;;3.90;99.90;;;;;;5039378;28;19909;-73
2022/03/24 01:46:03;;;;;;;;;;;3.90;99.90;;;;;;5039411;28;19956;-73
2022/03/24 01:48:29;;;;;;;;;;;3.90;99.90;;;;;;5039040;28;19908;-74
2022/03/24 01:50:54;;;;;;;;;;;3.90;99.90;;;;;;5039157;28;19975;-73
2022/03/24 01:53:20;;;;;;;;;;;3.80;99.90;;;;;;5039120;28;19980;-73
2022/03/24 01:55:47;;;;;;;;;;;3.70;99.90;;;;;;5039291;28;19975;-73
2022/03/24 01:58:13;;;;;;;;;;;3.60;99.90;;;;;;5021250;28;19958;-72
2022/03/24 02:00:39;;;;;;;;;;;3.60;99.90;;;;;;5021413;28;19913;-73
2022/03/24 02:03:05;;;;;;;;;;;3.60;99.90;;;;;;5039092;28;20208;-73
2022/03/24 02:05:32;;;;;;;;;;;3.60;99.90;;;;;;5038952;28;19919;-79
2022/03/24 02:08:02;;;;;;;;;;;3.60;99.90;;;;;;5039173;28;20219;-73
2022/03/24 02:10:28;;;;;;;;;;;3.80;99.90;;;;;;5005312;28;19913;-73
2022/03/24 02:12:56;;;;;;;;;;;4.10;99.90;;;;;;5038628;28;20231;-73
2022/03/24 02:15:22;;;;;;;;;;;4.00;99.90;;;;;;5038858;28;19944;-73
2022/03/24 02:17:48;;;;;;;;;;;3.80;99.90;;;;;;5001395;28;20285;-73
2022/03/24 02:20:14;;;;;;;;;;;3.90;99.90;;;;;;5001700;28;19916;-73
2022/03/24 02:22:40;;;;;;;;;;;3.90;99.90;;;;;;5001244;28;19906;-73
2022/03/24 02:25:07;;;;;;;;;;;4.20;99.90;;;;;;5018784;28;19917;-73
2022/03/24 02:27:32;;;;;;;;;;;4.40;99.90;;;;;;5018368;28;19924;-73
2022/03/24 02:29:58;;;;;;;;;;;4.30;99.90;;;;;;5018774;28;19905;-81
2022/03/24 02:32:24;;;;;;;;;;;4.10;99.90;;;;;;5018296;28;19999;-73
2022/03/24 02:34:51;;;;;;;;;;;4.00;99.90;;;;;;5018599;28;19951;-73
2022/03/24 02:37:25;;;;;;;;;;;3.90;99.90;;;;;;5018394;28;20364;-73
2022/03/24 02:39:51;;;;;;;;;;;3.80;99.90;;;;;;5018552;28;19911;-73
2022/03/24 02:42:18;;;;;;;;;;;3.70;99.90;;;;;;5017969;28;19912;-73
2022/03/24 02:44:48;;;;;;;;;;;3.70;99.90;;;;;;5018395;28;19906;-73
2022/03/24 02:47:14;;;;;;;;;;;3.70;99.90;;;;;;5025424;28;19963;-73
2022/03/24 02:49:40;;;;;;;;;;;3.70;99.90;;;;;;5038157;28;19941;-72
2022/03/24 02:52:06;;;;;;;;;;;3.70;99.90;;;;;;5038140;28;19905;-73
2022/03/24 02:54:32;;;;;;;;;;;3.60;99.90;;;;;;5020172;28;19909;-81
2022/03/24 02:56:58;;;;;;;;;;;3.60;99.90;;;;;;5038147;28;19916;-73
2022/03/24 02:59:24;;;;;;;;;;;3.50;99.90;;;;;;5037959;28;20007;-72
2022/03/24 03:01:57;;;;;;;;;;;3.60;99.90;;;;;;5018845;28;19905;-72
2022/03/24 03:04:23;;;;;;;;;;;3.50;99.90;;;;;;4999883;28;19948;-72
2022/03/24 03:06:49;;;;;;;;;;;3.50;99.90;;;;;;5017840;28;20011;-73
2022/03/24 03:09:16;;;;;;;;;;;3.60;99.90;;;;;;5018309;28;19913;-72
2022/03/24 03:11:45;;;;;;;;;;;3.50;99.90;;;;;;5017777;28;19910;-72
2022/03/24 03:14:13;;;;;;;;;;;3.50;99.90;;;;;;5000478;28;20113;-73
2022/03/24 03:16:40;;;;;;;;;;;3.70;99.90;;;;;;5017620;28;19905;-73
2022/03/24 03:19:08;;;;;;;;;;;3.70;99.90;;;;;;5018005;28;20224;-73
2022/03/24 03:21:38;;;;;;;;;;;3.70;99.90;;;;;;5024305;28;19915;-72
2022/03/24 03:24:04;;;;;;;;;;;3.60;99.90;;;;;;5037339;28;19956;-73
2022/03/24 03:26:30;;;;;;;;;;;3.50;99.90;;;;;;5019607;28;19905;-72
2022/03/24 03:28:56;;;;;;;;;;;3.40;99.90;;;;;;5037261;28;19909;-72
2022/03/24 03:31:21;;;;;;;;;;;3.50;99.90;;;;;;5037582;28;19905;-72
2022/03/24 03:33:47;;;;;;;;;;;3.50;99.90;;;;;;5037201;28;20222;-72
2022/03/24 03:36:13;;;;;;;;;;;3.50;99.90;;;;;;5037164;28;19909;-82
2022/03/24 03:38:39;;;;;;;;;;;3.40;99.90;;;;;;5037180;28;20212;-72
2022/03/24 03:41:05;;;;;;;;;;;3.50;99.90;;;;;;5036527;28;19912;-72
2022/03/24 03:43:32;;;;;;;;;;;3.60;99.90;;;;;;5019577;28;19905;-72
2022/03/24 03:45:58;;;;;;;;;;;3.70;99.90;;;;;;5037033;28;19995;-73
2022/03/24 03:48:24;;;;;;;;;;;3.70;99.90;;;;;;5036864;28;19909;-72
2022/03/24 03:50:50;;;;;;;;;;;3.70;99.90;;;;;;5036771;28;19905;-72
2022/03/24 03:53:16;;;;;;;;;;;3.60;99.90;;;;;;5036824;28;19916;-73
2022/03/24 03:55:42;;;;;;;;;;;3.60;99.90;;;;;;5019249;28;19909;-73
2022/03/24 03:58:08;;;;;;;;;;;3.50;99.90;;;;;;5036842;28;20292;-72
2022/03/24 04:00:52;;;;;;;;;;;3.40;99.90;;;;;;5036783;28;19915;-73
2022/03/24 04:03:25;;;;;;;;;;;3.40;99.90;;;;;;5019242;28;19912;-73
2022/03/24 04:05:52;;;;;;;;;;;3.30;99.90;;;;;;5036758;28;20235;-72
2022/03/24 04:08:18;;;;;;;;;;;3.40;99.90;;;;;;5036568;28;19909;-73
2022/03/24 04:10:43;;;;;;;;;;;3.30;99.90;;;;;;5036630;28;19912;-72
2022/03/24 04:13:10;;;;;;;;;;;3.40;99.90;;;;;;5036566;28;20263;-73
2022/03/24 04:15:35;;;;;;;;;;;3.40;99.90;;;;;;5019110;28;19908;-72
2022/03/24 04:18:01;;;;;;;;;;;3.30;99.90;;;;;;5036436;28;20300;-72
2022/03/24 04:20:27;;;;;;;;;;;3.30;99.90;;;;;;5036430;28;19909;-72
2022/03/24 04:22:53;;;;;;;;;;;3.20;99.90;;;;;;5036173;28;20193;-72
2022/03/24 04:25:22;;;;;;;;;;;3.20;99.90;;;;;;5018743;28;20274;-80
2022/03/24 04:27:48;;;;;;;;;;;3.10;99.90;;;;;;5036487;28;19909;-72
2022/03/24 04:30:15;;;;;;;;;;;3.10;99.90;;;;;;5036160;28;20310;-72
2022/03/24 04:32:41;;;;;;;;;;;2.90;99.90;;;;;;5036087;28;19924;-72
2022/03/24 04:35:07;;;;;;;;;;;2.90;99.90;;;;;;5018954;28;20196;-72
2022/03/24 04:37:33;;;;;;;;;;;2.80;99.90;;;;;;5036168;28;19944;-72
2022/03/24 04:39:59;;;;;;;;;;;2.90;99.90;;;;;;5036177;28;19959;-72
2022/03/24 04:42:25;;;;;;;;;;;2.80;99.90;;;;;;5035993;28;19905;-73
2022/03/24 04:44:50;;;;;;;;;;;2.80;99.90;;;;;;5018458;28;19905;-72
2022/03/24 04:47:16;;;;;;;;;;;2.90;99.90;;;;;;5035861;28;19944;-72
2022/03/24 04:49:42;;;;;;;;;;;3.00;99.90;;;;;;5035906;28;19916;-72
2022/03/24 04:52:08;;;;;;;;;;;3.10;99.90;;;;;;5035368;28;19909;-72
2022/03/24 04:54:34;;;;;;;;;;;3.20;99.90;;;;;;5036046;28;19919;-72
2022/03/24 04:56:59;;;;;;;;;;;3.10;99.90;;;;;;5035911;28;20315;-72
2022/03/24 04:59:25;;;;;;;;;;;3.00;99.90;;;;;;5035721;28;20008;-72
2022/03/24 05:01:50;;;;;;;;;;;3.00;99.90;;;;;;5035953;28;19963;-72
2022/03/24 05:04:16;;;;;;;;;;;3.00;99.90;;;;;;5035777;28;19912;-72
2022/03/24 05:06:42;;;;;;;;;;;2.90;99.90;;;;;;5035536;28;19909;-72
2022/03/24 05:09:08;;;;;;;;;;;3.00;99.90;;;;;;5035784;28;19909;-73
2022/03/24 05:11:33;;;;;;;;;;;3.10;99.90;;;;;;5035715;28;20011;-72
2022/03/24 05:13:59;;;;;;;;;;;3.10;99.90;;;;;;5035679;28;19909;-72
2022/03/24 05:16:25;;;;;;;;;;;3.10;99.90;;;;;;5036013;28;19905;-72
2022/03/24 05:18:50;;;;;;;;;;;3.10;99.90;;;;;;5035597;28;19947;-72
2022/03/24 05:21:16;;;;;;;;;;;3.10;99.90;;;;;;5035558;28;19992;-72
2022/03/24 05:23:42;;;;;;;;;;;3.10;99.90;;;;;;5035588;28;19921;-71
2022/03/24 05:26:07;;;;;;;;;;;3.10;99.90;;;;;;5035594;28;19948;-71
2022/03/24 05:28:33;;;;;;;;;;;3.00;99.90;;;;;;5035819;28;19913;-71
2022/03/24 05:30:58;;;;;;;;;;;3.00;99.90;;;;;;5035758;28;20335;-71
2022/03/24 05:33:24;;;;;;;;;;;2.90;99.90;;;;;;5035575;28;19909;-72
2022/03/24 05:35:50;;;;;;;;;;;2.80;99.90;;;;;;5018070;28;19951;-83
2022/03/24 05:38:16;;;;;;;;;;;2.80;99.90;;;;;;5035761;28;20254;-72
2022/03/24 05:40:41;;;;;;;;;;;2.80;99.90;;;;;;5035146;28;19915;-72
2022/03/24 05:43:07;;;;;;;;;;;2.70;99.90;;;;;;5035355;28;19936;-71
2022/03/24 05:45:33;;;;;;;;;;;2.60;99.90;;;;;;5035319;28;19909;-72
2022/03/24 05:47:59;;;;;;;;;;;2.60;99.90;;;;;;5035502;28;19909;-72
2022/03/24 05:50:25;;;;;;;;;;;2.40;99.90;;;;;;5017640;28;19912;-72
2022/03/24 05:52:51;;;;;;;;;;;2.20;99.90;;;;;;5035145;28;19909;-84
2022/03/24 05:55:17;;;;;;;;;;;2.20;99.90;;;;;;5017500;28;19966;-72
2022/03/24 05:57:43;;;;;;;;;;;2.20;99.90;;;;;;5035121;28;19909;-72
2022/03/24 06:00:09;;;;;;;;;;;2.30;99.90;;;;;;5034960;28;19912;-72
2022/03/24 06:02:34;;;;;;;;;;;2.30;99.90;;;;;;5036021;28;19905;-73
2022/03/24 06:05:00;;;;;;;;;;;2.30;99.90;;;;;;5021068;28;20312;-72
2022/03/24 06:07:27;;;;;;;;;;;2.40;99.90;;;;;;5038692;28;19909;-72
2022/03/24 06:09:52;;;;;;;;;;;2.50;99.90;;;;;;5038641;28;20227;-72
2022/03/24 06:12:18;;;;;;;;;;;2.50;99.90;;;;;;5038838;28;19912;-72
2022/03/24 06:14:43;;;;;;;;;;;2.60;99.90;;;;;;5020826;28;20370;-71
2022/03/24 06:17:09;;;;;;;;;;;2.80;99.90;;;;;;5038648;28;19905;-72
2022/03/24 06:19:36;;;;;;;;;;;2.80;99.90;;;;;;5020930;28;20215;-85
2022/03/24 06:22:02;;;;;;;;;;;3.00;99.90;;;;;;5038979;28;19904;-72
2022/03/24 06:24:29;;;;;;;;;;;3.10;99.90;;;;;;5038086;28;19921;-72
2022/03/24 06:26:55;;;;;;;;;;;3.10;99.90;;;;;;5038427;28;19905;-72
2022/03/24 06:29:22;;;;;;;;;;;3.20;99.90;;;;;;5038329;28;20046;-72
2022/03/24 06:31:48;;;;;;;;;;;3.40;99.90;;;;;;5038363;28;19932;-72
2022/03/24 06:34:14;;;;;;;;;;;3.60;99.90;;;;;;5038164;28;20314;-72
2022/03/24 06:36:39;;;;;;;;;;;3.70;99.90;;;;;;5038435;28;19905;-86
2022/03/24 06:39:06;;;;;;;;;;;3.90;99.90;;;;;;5038184;28;19924;-72
2022/03/24 06:41:31;;;;;;;;;;;4.10;99.90;;;;;;5038210;28;19905;-72
2022/03/24 06:43:57;;;;;;;;;;;4.30;99.90;;;;;;5038249;28;19916;-72
2022/03/24 06:46:24;;;;;;;;;;;4.50;99.90;;;;;;5037948;28;19956;-72
2022/03/24 06:48:50;;;;;;;;;;;4.60;99.90;;;;;;5020332;28;19999;-72
2022/03/24 06:51:15;;;;;;;;;;;4.80;99.90;;;;;;5037844;28;19972;-72
2022/03/24 06:53:41;;;;;;;;;;;5.00;99.90;;;;;;5037864;28;19916;-82
2022/03/24 06:56:06;;;;;;;;;;;5.20;99.90;;;;;;5037990;28;19915;-72
2022/03/24 06:58:32;;;;;;;;;;;5.50;99.90;;;;;;5037817;28;19909;-71
2022/03/24 07:00:58;;;;;;;;;;;5.90;99.90;;;;;;5020022;28;19995;-72
2022/03/24 07:03:23;;;;;;;;;;;6.50;99.90;;;;;;5037870;28;19917;-73
2022/03/24 07:05:49;;;;;;;;;;;7.10;99.90;;;;;;5037725;28;19936;-72
2022/03/24 07:08:14;;;;;;;;;;;7.50;99.90;;;;;;5037844;28;19909;-73
2022/03/24 07:10:40;;;;;;;;;;;8.20;99.90;;;;;;5037521;28;19905;-72
2022/03/24 07:13:07;;;;;;;;;;;9.20;99.90;;;;;;5019999;28;20003;-73
2022/03/24 07:15:33;;;;;;;;;;;9.90;99.90;;;;;;5019239;28;20108;-73
2022/03/24 07:17:59;;;;;;;;;;;10.60;99.90;;;;;;5019989;28;19905;-72
2022/03/24 07:20:24;;;;;;;;;;;10.70;99.90;;;;;;5019794;28;20315;-74
2022/03/24 07:22:50;;;;;;;;;;;11.20;99.90;;;;;;5019878;28;19912;-73
2022/03/24 07:25:16;;;;;;;;;;;11.80;99.90;;;;;;5037091;28;19917;-73
2022/03/24 07:27:42;;;;;;;;;;;12.50;99.90;;;;;;5037380;28;19905;-74
2022/03/24 07:30:09;;;;;;;;;;;13.00;99.90;;;;;;5037481;28;19947;-74
2022/03/24 07:32:35;;;;;;;;;;;13.30;99.90;;;;;;5037265;28;19905;-73
2022/03/24 07:35:01;;;;;;;;;;;13.70;99.90;;;;;;5019269;28;19912;-74
2022/03/24 07:37:31;;;;;;;;;;;14.10;99.90;;;;;;5019499;28;19956;-83
2022/03/24 07:39:56;;;;;;;;;;;14.50;99.90;;;;;;5036927;28;20003;-73
2022/03/24 07:42:22;;;;;;;;;;;14.50;99.90;;;;;;5019454;28;20421;-74
2022/03/24 07:44:48;;;;;;;;;;;14.40;99.90;;;;;;5036972;28;19915;-83
2022/03/24 07:47:14;;;;;;;;;;;14.60;99.90;;;;;;5036691;28;20004;-76
2022/03/24 07:49:39;;;;;;;;;;;14.90;99.90;;;;;;5036935;28;19909;-74
2022/03/24 07:52:08;;;;;;;;;;;15.00;99.90;;;;;;5019178;28;19912;-74
2022/03/24 07:54:55;;;;;;;;;;;15.00;99.90;;;;;;5036816;28;19913;-75
2022/03/24 07:57:21;;;;;;;;;;;15.20;99.90;;;;;;5036431;28;19963;-74
2022/03/24 07:59:46;;;;;;;;;;;15.70;99.90;;;;;;5036848;28;20292;-74
2022/03/24 08:02:12;;;;;;;;;;;15.90;99.90;;;;;;5036667;28;19908;-75
2022/03/24 08:04:38;;;;;;;;;;;16.10;99.90;;;;;;5036555;28;19905;-74
2022/03/24 08:07:04;;;;;;;;;;;16.30;99.90;;;;;;5018731;28;19956;-74
2022/03/24 08:09:33;;;;;;;;;;;16.50;99.90;;;;;;5018907;28;19955;-80
2022/03/24 08:11:59;;;;;;;;;;;16.10;99.90;;;;;;5018710;28;19905;-74
2022/03/24 08:14:25;;;;;;;;;;;16.10;99.90;;;;;;5036267;28;19909;-74
2022/03/24 08:16:50;;;;;;;;;;;16.10;99.90;;;;;;5036238;28;19912;-80
2022/03/24 08:19:16;;;;;;;;;;;15.80;99.90;;;;;;5036160;28;19905;-75
2022/03/24 08:21:42;;;;;;;;;;;15.90;99.90;;;;;;5036221;28;19908;-74
2022/03/24 08:24:09;;;;;;;;;;;16.00;99.90;;;;;;5018182;28;19928;-75
2022/03/24 08:26:37;;;;;;;;;;;15.70;99.90;;;;;;5036144;28;20278;-75
2022/03/24 08:29:04;;;;;;;;;;;15.40;99.90;;;;;;5036083;28;20274;-74
2022/03/24 08:31:29;;;;;;;;;;;14.90;99.90;;;;;;5018454;28;19905;-74
2022/03/24 08:33:55;;;;;;;;;;;14.90;99.90;;;;;;5036019;28;20024;-75
2022/03/24 08:36:21;;;;;;;;;;;14.80;99.90;;;;;;5035868;28;19932;-74
2022/03/24 08:38:47;;;;;;;;;;;14.60;99.90;;;;;;5018327;28;20331;-74
2022/03/24 08:41:12;;;;;;;;;;;14.80;99.90;;;;;;5036168;28;20167;-74
2022/03/24 08:43:38;;;;;;;;;;;14.50;99.90;;;;;;5035823;28;19939;-81
2022/03/24 08:46:06;;;;;;;;;;;14.30;99.90;;;;;;5035693;28;19932;-74
2022/03/24 08:48:32;;;;;;;;;;;14.30;99.90;;;;;;5035603;28;19909;-75
2022/03/24 08:50:58;;;;;;;;;;;14.50;99.90;;;;;;5035746;28;19955;-75
2022/03/24 08:53:23;;;;;;;;;;;14.40;99.90;;;;;;5018418;28;20219;-75
2022/03/24 08:55:49;;;;;;;;;;;14.70;99.90;;;;;;5035705;28;19995;-75
2022/03/24 08:58:18;;;;;;;;;;;15.30;99.90;;;;;;5018070;28;19987;-75
2022/03/24 09:00:46;;;;;;;;;;;15.30;99.90;;;;;;5035520;28;19962;-77
2022/03/24 09:03:12;;;;;;;;;;;15.60;99.90;;;;;;5018244;28;19909;-74
2022/03/24 09:05:37;;;;;;;;;;;15.60;99.90;;;;;;5035442;28;19905;-75
2022/03/24 09:08:04;;;;;;;;;;;15.80;99.90;;;;;;5035562;28;19962;-79
2022/03/24 09:10:30;;;;;;;;;;;15.60;99.90;;;;;;5017980;28;19959;-74
2022/03/24 09:12:55;;;;;;;;;;;15.70;99.90;;;;;;5035585;28;20246;-75
2022/03/24 09:15:21;;;;;;;;;;;15.60;99.90;;;;;;5035555;28;19916;-75
2022/03/24 09:17:47;;;;;;;;;;;15.90;99.90;;;;;;5017936;28;20371;-76
2022/03/24 09:20:13;;;;;;;;;;;15.70;99.90;;;;;;5035347;28;19909;-74
2022/03/24 09:22:40;;;;;;;;;;;15.90;99.90;;;;;;5035424;28;19905;-74
2022/03/24 09:25:06;;;;;;;;;;;15.80;99.90;;;;;;5035028;28;19917;-75
2022/03/24 09:27:32;;;;;;;;;;;15.80;99.90;;;;;;5035456;28;19909;-75
2022/03/24 09:29:58;;;;;;;;;;;15.80;99.90;;;;;;5034819;28;20322;-76
2022/03/24 09:32:24;;;;;;;;;;;15.80;99.60;;;;;;5035333;28;19909;-74
2022/03/24 09:34:49;;;;;;;;;;;16.00;98.40;;;;;;5034215;28;19913;-81
2022/03/24 09:37:18;;;;;;;;;;;15.80;99.20;;;;;;5035342;28;19905;-74
2022/03/24 09:39:44;;;;;;;;;;;15.60;99.90;;;;;;5039348;28;19909;-75
2022/03/24 09:42:10;;;;;;;;;;;15.40;99.50;;;;;;5039126;28;20334;-74
2022/03/24 09:44:37;;;;;;;;;;;15.40;98.60;;;;;;5038068;28;19905;-75
2022/03/24 09:47:03;;;;;;;;;;;15.50;96.50;;;;;;5037192;28;20051;-75
2022/03/24 09:49:30;;;;;;;;;;;15.70;99.70;;;;;;5039204;28;20311;-75
2022/03/24 09:51:55;;;;;;;;;;;15.70;96.40;;;;;;5036864;28;19909;-76
2022/03/24 09:54:21;;;;;;;;;;;15.70;96.50;;;;;;5034407;28;20231;-75
2022/03/24 09:56:46;;;;;;;;;;;15.60;96.30;;;;;;5029304;28;19915;-74
2022/03/24 09:59:12;;;;;;;;;;;15.80;94.80;;;;;;5033789;28;20197;-75
2022/03/24 10:01:39;;;;;;;;;;;15.70;96.30;;;;;;5035818;28;19905;-75
2022/03/24 10:04:15;;;;;;;;;;;15.60;93.70;;;;;;5020473;28;19955;-75
2022/03/24 10:06:57;;;;;;;;;;;15.50;92.70;;;;;;5010990;28;20354;-75
2022/03/24 10:09:44;;;;;;;;;;;15.50;93.10;;;;;;5023675;28;20311;-75
2022/03/24 10:12:20;;;;;;;;;;;15.60;91.60;;;;;;5026517;28;19912;-79
2022/03/24 10:14:55;;;;;;;;;;;15.60;91.60;;;;;;5026277;28;19924;-75
2022/03/24 10:17:21;;;;;;;;;;;15.60;91.00;;;;;;5031008;28;19931;-74
2022/03/24 10:19:55;;;;;;;;;;;15.50;84.30;;;;;;5027121;28;19905;-75
2022/03/24 10:22:20;;;;;;;;;;;15.40;90.00;;;;;;5034170;28;20327;-74
2022/03/24 10:24:46;;;;;;;;;;;15.40;91.00;;;;;;5016878;28;19917;-74
2022/03/24 10:27:19;;;;;;;;;;;15.40;88.60;;;;;;5019290;28;19909;-75
2022/03/24 10:29:48;;;;;;;;;;;15.30;88.20;;;;;;5026713;28;19905;-75
2022/03/24 10:32:14;;;;;;;;;;;15.40;89.40;;;;;;5016568;28;19914;-75
2022/03/24 10:34:46;;;;;;;;;;;15.40;91.60;;;;;;5018068;28;19914;-75
2022/03/24 10:37:13;;;;;;;;;;;15.40;90.30;;;;;;5017820;28;19913;-75
2022/03/24 10:39:53;;;;;;;;;;;15.30;90.70;;;;;;5018078;28;19951;-75
2022/03/24 10:42:19;;;;;;;;;;;15.30;91.10;;;;;;5018351;28;19913;-75
2022/03/24 10:45:20;;;;;;;;;;;15.30;91.60;;;;;;5017236;28;19912;-75
2022/03/24 10:48:00;;;;;;;;;;;15.30;92.00;;;;;;4957782;29;19913;-75
2022/03/24 10:50:28;;;;;;;;;;;15.40;90.10;;;;;;4957873;28;19914;-75
2022/03/24 10:52:54;;;;;;;;;;;15.40;91.10;;;;;;4957675;29;20273;-75
2022/03/24 10:55:26;;;;;;;;;;;15.40;91.00;;;;;;4957646;29;19911;-79
2022/03/24 10:57:52;;;;;;;;;;;15.40;90.30;;;;;;4957631;29;20005;-74
2022/03/24 11:00:19;;;;;;;;;;;15.40;91.20;;;;;;4957813;28;19911;-75
2022/03/24 11:02:45;;;;;;;;;;;15.50;91.60;;;;;;4941452;29;20313;-80
2022/03/24 11:05:13;;;;;;;;;;;15.60;91.00;;;;;;4941427;29;19994;-74
2022/03/24 11:07:38;;;;;;;;;;;15.80;91.90;;;;;;4957531;28;19918;-75
2022/03/24 11:10:15;;;;;;;;;;;15.80;90.30;;;;;;4957600;28;20190;-75
2022/03/24 11:12:42;;;;;;;;;;;15.80;90.20;;;;;;4957299;28;19907;-78
2022/03/24 11:15:09;;;;;;;;;;;15.90;91.00;;;;;;4957488;28;20288;-74
2022/03/24 11:17:36;;;;;;;;;;;16.00;90.40;;;;;;4957471;29;19913;-75
2022/03/24 11:20:04;;;;;;;;;;;16.10;90.80;;;;;;4957336;29;20003;-76
2022/03/24 11:22:42;;;;;;;;;;;16.20;89.50;;;;;;5023100;28;19905;-76
2022/03/24 11:25:09;;;;;;;;;;;16.10;90.30;;;;;;5019460;28;20016;-75
2022/03/24 11:27:34;;;;;;;;;;;15.90;90.20;;;;;;5019662;28;20211;-75
2022/03/24 11:30:01;;;;;;;;;;;15.90;90.60;;;;;;5037097;28;20008;-75
2022/03/24 11:32:26;;;;;;;;;;;16.10;90.50;;;;;;5019457;28;19935;-74
2022/03/24 11:34:53;;;;;;;;;;;16.20;88.50;;;;;;5019414;28;19913;-75
2022/03/24 11:37:18;;;;;;;;;;;16.30;90.40;;;;;;5037395;28;20241;-75
2022/03/24 11:40:01;;;;;;;;;;;16.30;87.20;;;;;;5019326;28;19996;-75
2022/03/24 11:42:26;;;;;;;;;;;16.30;87.00;;;;;;5037123;28;19940;-74
2022/03/24 11:44:57;;;;;;;;;;;16.30;87.90;;;;;;5036947;28;19959;-75
2022/03/24 11:47:24;;;;;;;;;;;16.30;89.90;;;;;;5036885;28;19931;-76
2022/03/24 11:50:09;;;;;;;;;;;16.30;90.90;;;;;;5037089;28;19905;-75
2022/03/24 11:52:35;;;;;;;;;;;16.30;90.00;;;;;;5036652;28;19917;-75
2022/03/24 11:55:00;;;;;;;;;;;16.30;91.10;;;;;;5036709;28;19952;-76
2022/03/24 11:57:36;;;;;;;;;;;16.30;91.10;;;;;;5019164;28;19911;-75
2022/03/24 12:00:14;;;;;;;;;;;16.40;89.70;;;;;;5018561;28;19909;-74
2022/03/24 12:02:44;;;;;;;;;;;16.40;88.70;;;;;;5036665;28;19907;-75
2022/03/24 12:05:10;;;;;;;;;;;16.50;90.30;;;;;;5036469;28;19905;-75
2022/03/24 12:07:36;;;;;;;;;;;16.40;88.20;;;;;;5018970;28;20319;-75
2022/03/24 12:10:07;;;;;;;;;;;16.30;90.50;;;;;;5036214;28;19908;-75
2022/03/24 12:12:32;;;;;;;;;;;16.40;89.30;;;;;;5036489;28;19963;-75
2022/03/24 12:14:58;;;;;;;;;;;16.40;89.50;;;;;;5018669;28;19905;-75
2022/03/24 12:17:30;;;;;;;;;;;16.40;90.20;;;;;;5036531;28;20219;-76
2022/03/24 12:19:57;;;;;;;;;;;16.40;90.80;;;;;;5018593;28;19940;-75
2022/03/24 12:22:25;;;;;;;;;;;16.50;91.00;;;;;;5018733;28;19909;-74
2022/03/24 12:25:00;;;;;;;;;;;16.60;90.00;;;;;;5015200;28;19967;-75
2022/03/24 12:27:26;;;;;;;;;;;16.40;91.00;;;;;;5016340;28;19920;-75
2022/03/24 12:30:11;;;;;;;;;;;16.50;89.60;;;;;;5015266;28;19975;-75
2022/03/24 12:32:37;;;;;;;;;;;16.50;92.30;;;;;;5016703;28;20212;-74
2022/03/24 12:35:03;;;;;;;;;;;16.60;90.20;;;;;;5016313;28;19910;-75
2022/03/24 12:37:35;;;;;;;;;;;16.60;92.60;;;;;;5015158;28;19909;-75
2022/03/24 12:40:09;;;;;;;;;;;16.50;91.00;;;;;;5016519;28;20208;-75
2022/03/24 12:42:48;;;;;;;;;;;16.30;92.00;;;;;;5015247;28;19906;-75
2022/03/24 12:45:35;;;;;;;;;;;16.20;91.90;;;;;;5016279;28;19909;-75
2022/03/24 12:48:09;;;;;;;;;;;16.20;91.80;;;;;;5016365;28;19968;-76
2022/03/24 12:50:37;;;;;;;;;;;16.20;92.30;;;;;;5016270;28;19949;-75
2022/03/24 12:53:07;;;;;;;;;;;16.20;91.70;;;;;;5014909;28;19917;-75
2022/03/24 12:55:39;;;;;;;;;;;16.30;92.30;;;;;;5016320;28;19923;-75
2022/03/24 12:58:09;;;;;;;;;;;16.50;91.90;;;;;;5014902;28;19999;-75
2022/03/24 13:00:40;;;;;;;;;;;16.60;92.60;;;;;;5014951;28;19912;-75
2022/03/24 13:03:06;;;;;;;;;;;16.60;91.20;;;;;;5016102;28;20004;-74
2022/03/24 13:05:33;;;;;;;;;;;16.60;90.40;;;;;;5015828;28;20000;-75
2022/03/24 13:08:00;;;;;;;;;;;16.60;91.60;;;;;;5016049;28;19944;-75
2022/03/24 13:10:27;;;;;;;;;;;16.70;91.60;;;;;;5016047;28;20212;-76
2022/03/24 13:12:57;;;;;;;;;;;16.60;90.60;;;;;;5015242;28;19909;-75
2022/03/24 13:15:29;;;;;;;;;;;16.60;90.90;;;;;;5014722;28;19928;-74
2022/03/24 13:17:57;;;;;;;;;;;16.50;90.30;;;;;;5014771;28;19905;-74
2022/03/24 13:20:27;;;;;;;;;;;16.60;90.60;;;;;;5014495;28;19909;-75
2022/03/24 13:22:53;;;;;;;;;;;16.60;89.00;;;;;;5014715;28;19936;-76
2022/03/24 13:25:21;;;;;;;;;;;16.40;90.10;;;;;;5035280;28;19905;-76
2022/03/24 13:27:51;;;;;;;;;;;16.50;90.10;;;;;;5035730;28;19909;-75
2022/03/24 13:30:19;;;;;;;;;;;16.50;89.90;;;;;;5035383;28;20219;-76
2022/03/24 13:32:46;;;;;;;;;;;16.60;91.10;;;;;;5035553;28;19905;-75
2022/03/24 13:35:13;;;;;;;;;;;16.70;90.60;;;;;;5001343;28;19952;-76
2022/03/24 13:37:40;;;;;;;;;;;16.80;88.70;;;;;;5018238;28;19916;-76
2022/03/24 13:40:07;;;;;;;;;;;16.90;89.30;;;;;;5035288;28;19905;-75
2022/03/24 13:42:34;;;;;;;;;;;16.90;88.10;;;;;;5035472;28;20004;-74
2022/03/24 13:45:00;;;;;;;;;;;16.90;88.10;;;;;;5035110;28;19909;-75
2022/03/24 13:47:27;;;;;;;;;;;16.80;88.70;;;;;;5035384;28;19916;-75
2022/03/24 13:49:54;;;;;;;;;;;16.80;86.60;;;;;;5017830;28;19948;-74
2022/03/24 13:52:29;;;;;;;;;;;16.80;87.70;;;;;;5035432;28;19929;-75
2022/03/24 13:55:05;;;;;;;;;;;16.80;88.70;;;;;;5035024;28;19920;-74
2022/03/24 13:57:32;;;;;;;;;;;16.80;90.30;;;;;;5017659;28;19909;-75
2022/03/24 13:59:57;;;;;;;;;;;16.70;89.40;;;;;;5035255;28;19948;-76
2022/03/24 14:02:24;;;;;;;;;;;16.60;91.00;;;;;;5017617;28;20300;-76
2022/03/24 14:05:13;;;;;;;;;;;16.60;91.60;;;;;;5017462;28;19920;-80
2022/03/24 14:07:54;;;;;;;;;;;16.70;90.80;;;;;;5035058;28;20354;-77
2022/03/24 14:10:21;;;;;;;;;;;16.60;90.40;;;;;;5035302;28;19920;-79
2022/03/24 14:12:53;;;;;;;;;;;16.80;91.20;;;;;;5034947;28;19956;-75
2022/03/24 14:15:21;;;;;;;;;;;16.70;90.00;;;;;;5034938;28;20315;-75
2022/03/24 14:18:07;;;;;;;;;;;16.80;90.20;;;;;;5035016;28;19917;-76
2022/03/24 14:20:42;;;;;;;;;;;16.80;90.50;;;;;;5034671;28;19909;-76
2022/03/24 14:23:10;;;;;;;;;;;16.70;91.40;;;;;;5034684;28;19928;-76
2022/03/24 14:25:36;;;;;;;;;;;16.60;90.90;;;;;;5020824;28;19909;-75